Time;durP1;ratioP1;P1;durP2;ratioP2;P2;SDS_P1;SDS_P2;PMS_P1;PMS_P2;Temp;Humidity;BMP_temperature;BMP_pressure;BME280_temperature;BME280_humidity;BME280_pressure;Samples;Min_cycle;Max_cycle;Signal;HPM_P1;HPM_P2
2021/11/05 00:01:06;;;;;;;;;6.33;6.33;;;;;9.37;71.90;101535.84;4951235;28;45277;-96
2021/11/05 00:03:31;;;;;;;;;8.00;6.33;;;;;9.42;72.24;101551.84;4949832;28;46838;-96
2021/11/05 00:05:57;;;;;;;;;6.00;5.67;;;;;9.54;72.19;101577.91;4956223;28;45338;-96
2021/11/05 00:08:25;;;;;;;;;5.00;5.00;;;;;9.35;72.26;101543.63;4940341;28;44902;-96
2021/11/05 00:10:51;;;;;;;;;8.00;7.00;;;;;9.45;72.20;101558.22;4959581;28;45398;-96
2021/11/05 00:13:17;;;;;;;;;7.33;7.00;;;;;9.58;72.33;101587.81;4964529;28;47241;-96
2021/11/05 00:15:42;;;;;;;;;7.00;7.00;;;;;9.37;72.40;101554.19;4954060;28;44835;-96
2021/11/05 00:18:08;;;;;;;;;6.00;6.00;;;;;9.49;72.23;101569.78;4953754;28;45307;-96
2021/11/05 00:20:37;;;;;;;;;3.00;3.00;;;;;9.44;72.45;101558.09;4954439;28;45020;-96
2021/11/05 00:23:04;;;;;;;;;6.00;6.00;;;;;9.51;72.59;101570.75;4954920;28;47315;-96
2021/11/05 00:25:30;;;;;;;;;7.67;7.67;;;;;9.50;72.26;101564.66;4950470;28;45430;-96
2021/11/05 00:27:56;;;;;;;;;6.33;5.67;;;;;9.55;72.59;101570.16;4945842;28;45424;-96
2021/11/05 00:30:21;;;;;;;;;5.00;5.00;;;;;9.53;72.27;101571.78;4952480;28;45450;-96
2021/11/05 00:32:47;;;;;;;;;5.67;5.67;;;;;9.39;72.28;101550.84;4962331;28;48288;-96
2021/11/05 00:35:13;;;;;;;;;7.00;6.33;;;;;9.44;72.18;101560.72;4948291;28;45363;-96
2021/11/05 00:37:38;;;;;;;;;7.00;5.00;;;;;9.50;72.46;101574.22;4947245;28;45335;-96
2021/11/05 00:40:12;;;;;;;;;10.00;6.33;;;;;9.56;72.35;101592.06;4946362;28;45471;-96
2021/11/05 00:42:40;;;;;;;;;6.00;5.00;;;;;9.49;72.37;101583.78;4949667;28;48645;-96
2021/11/05 00:45:06;;;;;;;;;3.00;3.00;;;;;9.41;72.13;101574.53;4947753;28;45471;-96
2021/11/05 00:47:32;;;;;;;;;6.00;6.00;;;;;9.37;72.46;101572.53;4940661;28;45700;-96
2021/11/05 00:50:01;;;;;;;;;7.33;6.00;;;;;9.34;72.20;101567.09;4971310;28;45400;-96
2021/11/05 00:52:26;;;;;;;;;5.33;5.33;;;;;9.30;72.51;101571.25;4954263;28;47143;-95
2021/11/05 00:54:57;;;;;;;;;7.00;6.00;;;;;9.45;72.47;101610.63;4957126;28;45416;-96
2021/11/05 00:57:23;;;;;;;;;7.67;5.67;;;;;9.21;72.91;101571.53;4952341;28;45495;-96
2021/11/05 00:59:50;;;;;;;;;6.00;6.00;;;;;9.25;72.50;101581.41;4948965;28;45391;-96
2021/11/05 01:02:15;;;;;;;;;6.00;4.67;;;;;9.36;72.38;101604.75;4948909;28;47661;-96
2021/11/05 01:04:44;;;;;;;;;6.00;5.67;;;;;9.22;72.32;101586.47;4955378;28;44785;-96
2021/11/05 01:07:17;;;;;;;;;9.67;7.00;;;;;9.20;72.21;101595.03;4951619;28;45497;-96
2021/11/05 01:09:50;;;;;;;;;11.00;8.33;;;;;9.37;72.47;101623.22;4953102;28;45368;-96
2021/11/05 01:12:20;;;;;;;;;7.33;7.33;;;;;9.24;72.41;101597.03;4951852;28;47325;-96
2021/11/05 01:14:46;;;;;;;;;11.33;8.00;;;;;9.38;72.71;101614.53;4937171;28;44971;-96
2021/11/05 01:17:14;;;;;;;;;6.33;6.33;;;;;9.38;72.42;101617.16;4954033;28;45384;-96
2021/11/05 01:19:43;;;;;;;;;6.00;6.00;;;;;9.42;72.40;101623.50;4936391;28;44912;-96
2021/11/05 01:22:14;;;;;;;;;6.67;5.33;;;;;9.33;72.32;101610.72;4944077;28;46765;-96
2021/11/05 01:24:42;;;;;;;;;5.67;5.00;;;;;9.41;72.37;101621.69;4941439;28;45390;-96
2021/11/05 01:27:08;;;;;;;;;6.00;3.00;;;;;9.32;72.53;101614.16;4956476;28;45555;-96
2021/11/05 01:29:34;;;;;;;;;9.00;8.67;;;;;9.43;72.35;101627.94;4963536;28;44879;-96
2021/11/05 01:32:05;;;;;;;;;7.00;6.00;;;;;9.33;72.52;101618.56;4965570;28;47180;-96
2021/11/05 01:34:31;;;;;;;;;7.00;6.00;;;;;9.37;72.27;101625.84;4962627;28;45157;-96
2021/11/05 01:37:03;;;;;;;;;7.00;7.00;;;;;9.50;72.50;101663.31;4965423;28;45547;-96
2021/11/05 01:39:36;;;;;;;;;10.00;8.00;;;;;9.28;72.41;101626.16;4972262;28;45253;-96
2021/11/05 01:42:13;;;;;;;;;7.33;7.00;;;;;9.44;72.24;101652.44;4960366;28;45655;-96
2021/11/05 01:44:52;;;;;;;;;6.00;6.00;;;;;9.25;72.44;101625.94;4976531;28;44819;-96
2021/11/05 01:47:44;;;;;;;;;8.67;7.00;;;;;9.27;72.42;101632.22;5002026;28;44852;-96
2021/11/05 01:50:49;;;;;;;;;5.33;5.00;;;;;9.43;72.19;101664.63;4983741;28;44858;-96
2021/11/05 01:53:39;;;;;;;;;3.67;3.00;;;;;9.44;72.43;101655.97;4986863;28;45696;-96
2021/11/05 01:56:19;;;;;;;;;5.00;5.00;;;;;9.27;72.21;101636.53;5014905;28;44759;-96
2021/11/05 01:58:59;;;;;;;;;5.67;4.33;;;;;9.22;72.63;101633.63;5004973;28;44865;-96
2021/11/05 02:01:50;;;;;;;;;6.00;3.67;;;;;9.21;72.08;101631.78;5035464;28;44789;-96
2021/11/05 02:04:43;;;;;;;;;3.33;3.00;;;;;9.21;72.17;101637.03;4978012;28;47293;-96
2021/11/05 02:07:22;;;;;;;;;6.00;3.00;;;;;9.16;72.06;101641.97;5004296;28;44717;-96
2021/11/05 02:09:57;;;;;;;;;7.00;5.00;;;;;9.23;71.94;101659.00;4993498;28;45154;-96
2021/11/05 02:12:34;;;;;;;;;5.67;3.67;;;;;9.07;71.94;101636.13;5001765;28;45307;-96
2021/11/05 02:15:23;;;;;;;;;4.67;3.00;;;;;9.07;72.11;101643.97;4971908;28;45688;-96
2021/11/05 02:18:07;;;;;;;;;;;;;;;;;;;;;
2021/11/05 02:20:52;;;;;;;;;3.67;3.00;;;;;9.11;72.12;101679.16;5021897;28;69218;-96
2021/11/05 02:23:31;;;;;;;;;4.33;4.33;;;;;8.89;72.07;101652.41;4969680;28;44847;-96
2021/11/05 02:26:03;;;;;;;;;5.00;5.00;;;;;8.82;72.30;101645.88;4979612;28;45600;-96
2021/11/05 02:28:45;;;;;;;;;5.67;3.00;;;;;9.03;72.41;101686.50;4966223;28;45341;-96
2021/11/05 02:31:14;;;;;;;;;3.00;3.00;;;;;8.80;72.29;101655.34;4974130;28;44735;-96
2021/11/05 02:33:43;;;;;;;;;6.00;5.00;;;;;8.88;72.71;101671.56;4999967;28;44869;-96
2021/11/05 02:36:12;;;;;;;;;3.00;1.33;;;;;8.82;72.49;101661.59;4976910;28;46930;-96
2021/11/05 02:38:46;;;;;;;;;6.00;3.00;;;;;8.83;72.94;101666.03;4986919;28;44707;-96
2021/11/05 02:41:19;;;;;;;;;4.33;4.33;;;;;8.86;72.83;101672.28;4962364;28;44858;-96
2021/11/05 02:43:53;;;;;;;;;3.67;3.67;;;;;9.08;72.85;101703.41;4979162;28;44859;-96
2021/11/05 02:46:29;;;;;;;;;6.33;5.00;;;;;8.93;72.70;101688.50;4979277;28;47076;-96
2021/11/05 02:49:17;;;;;;;;;;;;;;;;;;;;;
2021/11/05 02:51:51;;;;;;;;;3.00;3.00;;;;;8.86;72.52;101673.19;4989393;28;69884;-96
2021/11/05 02:54:27;;;;;;;;;3.00;3.00;;;;;8.90;72.65;101677.81;4979621;28;44859;-96
2021/11/05 02:57:02;;;;;;;;;6.00;3.67;;;;;8.86;72.53;101673.19;4959997;28;45168;-96
2021/11/05 02:59:58;;;;;;;;;3.67;3.67;;;;;8.91;72.40;101678.72;4958595;28;44767;-96
2021/11/05 03:02:26;;;;;;;;;6.00;3.67;;;;;9.07;72.48;101712.06;4967917;28;44803;-96
2021/11/05 03:05:01;;;;;;;;;3.00;2.00;;;;;9.05;72.63;101704.13;4963290;28;44899;-96
2021/11/05 03:07:35;;;;;;;;;3.67;3.00;;;;;9.06;72.30;101707.66;4976488;28;47199;-96
2021/11/05 03:10:02;;;;;;;;;6.00;4.33;;;;;8.89;72.53;101690.81;4981893;28;45497;-96
2021/11/05 03:12:36;;;;;;;;;3.00;3.00;;;;;8.83;72.51;101680.81;4973490;28;44854;-96
2021/11/05 03:15:02;;;;;;;;;5.33;5.33;;;;;8.94;72.82;101702.50;4953916;28;44975;-96
2021/11/05 03:17:35;;;;;;;;;4.33;3.00;;;;;8.93;72.12;101698.06;4957462;28;48516;-96
2021/11/05 03:20:07;;;;;;;;;3.00;3.00;;;;;8.89;72.54;101696.94;4981057;28;45480;-96
2021/11/05 03:22:41;;;;;;;;;2.00;2.00;;;;;9.09;72.38;101734.06;4986491;28;44790;-96
2021/11/05 03:25:19;;;;;;;;;;;;;;;;;;;;;
2021/11/05 03:27:56;;;;;;;;;4.33;4.33;;;;;8.92;72.79;101712.84;4975440;28;75802;-96
2021/11/05 03:30:26;;;;;;;;;3.67;3.00;;;;;8.87;72.65;101708.09;4976811;28;45394;-96
2021/11/05 03:33:00;;;;;;;;;3.00;3.00;;;;;8.87;72.68;101706.41;4980887;28;45447;-96
2021/11/05 03:35:50;;;;;;;;;5.33;3.00;;;;;8.91;72.50;101712.78;4994994;28;45248;-96
2021/11/05 03:38:24;;;;;;;;;2.00;2.00;;;;;8.92;72.60;101719.81;5011552;28;45702;-96
2021/11/05 03:41:07;;;;;;;;;2.00;2.00;;;;;8.88;72.42;101718.69;4976142;28;45512;-96
2021/11/05 03:43:34;;;;;;;;;6.00;2.33;;;;;9.03;72.47;101750.25;4963338;28;44923;-96
2021/11/05 03:46:07;;;;;;;;;7.67;3.67;;;;;8.91;72.36;101733.72;4962800;28;44900;-96
2021/11/05 03:48:38;;;;;;;;;6.33;4.33;;;;;8.87;72.64;101722.09;4955606;28;47270;-96
2021/11/05 03:51:16;;;;;;;;;2.67;2.67;;;;;9.11;72.47;101763.88;4963300;28;45464;-96
2021/11/05 03:54:10;;;;;;;;;2.67;2.67;;;;;9.12;72.41;101773.53;4963552;28;45364;-96
2021/11/05 03:56:42;;;;;;;;;5.00;2.67;;;;;8.92;72.44;101741.66;5011834;28;45406;-96
2021/11/05 03:59:17;;;;;;;;;6.67;3.00;;;;;9.00;72.46;101752.66;4979898;28;45623;-96
2021/11/05 04:02:00;;;;;;;;;2.00;2.00;;;;;8.92;72.67;101741.66;4926251;28;44810;-96
2021/11/05 04:04:30;;;;;;;;;4.33;3.00;;;;;8.97;72.18;101752.44;4946760;28;44874;-96
2021/11/05 04:07:11;;;;;;;;;4.33;4.33;;;;;8.93;72.47;101753.06;4976862;28;44878;-96
2021/11/05 04:09:58;;;;;;;;;6.67;3.33;;;;;8.92;72.61;101756.47;4976724;28;48034;-96
2021/11/05 04:12:31;;;;;;;;;2.33;2.33;;;;;8.98;72.28;101769.06;4941379;28;44781;-96
2021/11/05 04:15:00;;;;;;;;;5.00;3.00;;;;;9.16;72.81;101803.47;4919145;28;45374;-96
2021/11/05 04:17:31;;;;;;;;;6.00;6.00;;;;;9.03;72.28;101786.94;4913416;28;44904;-96
2021/11/05 04:19:58;;;;;;;;;4.33;2.67;;;;;9.18;72.52;101814.97;4885474;29;46660;-96
2021/11/05 04:22:54;;;;;;;;;;;;;;;;;;;;;
2021/11/05 04:25:32;;;;;;;;;5.00;3.00;;;;;9.09;72.14;101806.47;4945149;28;67157;-96
2021/11/05 04:28:02;;;;;;;;;2.00;2.00;;;;;8.97;72.53;101785.59;4917347;28;45168;-96
2021/11/05 04:30:49;;;;;;;;;6.33;5.33;;;;;9.02;72.43;101799.94;4949002;28;45469;-96
2021/11/05 04:33:22;;;;;;;;;6.67;5.33;;;;;9.02;72.56;101802.53;4932990;28;44711;-96
2021/11/05 04:35:53;;;;;;;;;6.33;4.33;;;;;9.02;72.56;101820.88;4950459;28;45014;-96
2021/11/05 04:38:36;;;;;;;;;6.67;3.00;;;;;8.94;72.53;101807.25;4906270;28;44797;-96
2021/11/05 04:41:38;;;;;;;;;5.00;4.33;;;;;9.13;72.45;101839.94;4938442;28;45599;-96
2021/11/05 05:13:02;;;;;;;;;6.00;5.00;;;;;8.92;72.61;101845.50;5969282;23;45888;-96
2021/11/05 05:15:49;;;;;;;;;6.00;5.00;;;;;8.87;71.72;101839.03;4943903;28;44766;-96
2021/11/05 05:18:22;;;;;;;;;5.00;3.00;;;;;8.89;72.66;101845.31;4979760;28;44750;-96
2021/11/05 05:20:54;;;;;;;;;4.33;3.67;;;;;8.93;72.53;101852.56;4964683;28;44751;-96
2021/11/05 05:23:24;;;;;;;;;5.33;5.00;;;;;8.93;72.77;101849.94;4949381;28;46653;-96
2021/11/05 05:25:51;;;;;;;;;5.00;5.00;;;;;8.98;72.61;101855.50;4961923;28;44811;-96
2021/11/05 05:28:30;;;;;;;;;3.33;3.33;;;;;8.98;72.61;101853.78;4946030;28;44826;-96
2021/11/05 05:31:04;;;;;;;;;2.00;2.00;;;;;8.98;72.51;101860.72;4947007;28;44826;-96
2021/11/05 05:33:36;;;;;;;;;5.67;3.00;;;;;9.01;72.28;101867.09;4929565;28;45782;-96
2021/11/05 05:36:33;;;;;;;;;5.00;5.00;;;;;8.95;72.75;101861.44;4954307;28;44898;-96
2021/11/05 05:39:13;;;;;;;;;7.67;5.00;;;;;8.96;72.70;101871.13;4979511;28;44801;-96
2021/11/05 05:41:38;;;;;;;;;6.67;3.67;;;;;9.01;72.58;101876.66;4944201;28;44820;-96
2021/11/05 05:44:09;;;;;;;;;6.33;5.00;;;;;9.01;72.08;101880.19;4940253;28;47010;-96
2021/11/05 05:46:35;;;;;;;;;3.00;3.00;;;;;9.06;71.85;101891.00;4960115;28;45351;-96
2021/11/05 05:49:14;;;;;;;;;5.33;3.67;;;;;9.19;71.89;101926.81;4960200;28;45462;-96
2021/11/05 05:51:48;;;;;;;;;5.33;3.00;;;;;9.06;72.28;101901.47;4962266;28;44968;-96
2021/11/05 05:54:17;;;;;;;;;6.33;4.33;;;;;9.19;72.34;101929.44;4960517;28;46488;-96
2021/11/05 05:56:45;;;;;;;;;6.00;5.00;;;;;9.10;72.46;101915.69;4927760;28;45281;-96
2021/11/05 05:59:17;;;;;;;;;3.00;3.00;;;;;8.97;71.99;101896.47;4959302;28;44852;-96
2021/11/05 06:01:49;;;;;;;;;3.00;3.00;;;;;9.03;72.24;101915.25;4957509;28;44834;-96
2021/11/05 06:04:19;;;;;;;;;6.00;3.00;;;;;8.96;72.38;101899.91;4940086;28;47524;-96
2021/11/05 06:06:48;;;;;;;;;4.00;3.67;;;;;9.02;71.82;101909.94;4936227;28;44938;-96
2021/11/05 06:09:44;;;;;;;;;5.00;2.00;;;;;9.04;72.14;101918.78;4946691;28;45321;-96
2021/11/05 06:12:14;;;;;;;;;5.67;3.00;;;;;8.96;72.52;101914.72;4932774;28;44784;-96
2021/11/05 06:14:48;;;;;;;;;5.00;5.00;;;;;8.90;71.90;101916.09;4971426;28;46349;-96
2021/11/05 06:32:45;;;;;;;;;2.33;2.33;;;;;8.93;72.08;101937.28;5807378;23;46121;-96
2021/11/05 06:35:13;;;;;;;;;6.00;5.00;;;;;9.04;72.13;101956.38;4952193;28;46603;-95
2021/11/05 07:26:49;;;;;;;;;6.00;6.00;;;;;9.35;71.69;102069.41;5135430;23;45528;-83
2021/11/05 07:29:19;;;;;;;;;6.00;6.00;;;;;9.33;71.51;102061.41;4939035;28;45459;-83
2021/11/05 07:31:44;;;;;;;;;7.00;5.00;;;;;9.35;71.80;102070.31;4956353;28;45347;-83
2021/11/05 07:34:10;;;;;;;;;4.00;4.00;;;;;9.34;71.94;102073.72;4971634;28;45480;-83
2021/11/05 07:36:35;;;;;;;;;5.33;3.00;;;;;9.34;72.04;102078.97;4970629;28;45886;-82
2021/11/05 07:39:01;;;;;;;;;3.67;3.67;;;;;9.45;71.69;102095.47;4969055;28;45440;-82
2021/11/05 07:41:26;;;;;;;;;6.00;5.00;;;;;9.42;71.42;102087.38;4953801;28;45576;-82
2021/11/05 07:43:52;;;;;;;;;3.00;3.00;;;;;9.54;71.43;102105.69;4957223;28;45408;-81
2021/11/05 07:46:17;;;;;;;;;6.00;6.00;;;;;9.57;71.48;102108.53;4973011;28;45539;-83
2021/11/05 07:48:43;;;;;;;;;3.00;3.00;;;;;9.60;71.18;102115.72;4962182;28;45487;-83
2021/11/05 07:51:08;;;;;;;;;3.00;3.00;;;;;9.64;71.14;102109.00;4969511;28;51236;-82
2021/11/05 07:53:34;;;;;;;;;5.00;5.00;;;;;9.69;71.27;102110.22;4970268;28;45484;-82
2021/11/05 07:55:59;;;;;;;;;4.67;4.67;;;;;9.73;70.86;102117.50;4954725;28;45547;-83
2021/11/05 07:58:25;;;;;;;;;3.00;3.00;;;;;9.78;70.72;102131.84;4979152;28;45677;-83
2021/11/05 08:00:50;;;;;;;;;3.67;2.00;;;;;9.81;70.08;102126.84;4978209;28;67433;-83
2021/11/05 08:03:17;;;;;;;;;3.00;3.00;;;;;9.78;70.69;102126.59;4958633;28;45501;-85
2021/11/05 08:05:43;;;;;;;;;3.67;3.67;;;;;9.81;71.02;102129.44;4960600;28;45535;-85
2021/11/05 08:08:09;;;;;;;;;2.33;2.33;;;;;9.82;69.62;102138.19;4972234;28;45808;-84
2021/11/05 08:10:35;;;;;;;;;4.67;4.67;;;;;9.82;70.77;102132.97;4971637;28;45400;-84
2021/11/05 08:13:00;;;;;;;;;4.33;4.33;;;;;9.87;70.65;102139.44;4966547;28;45374;-84
2021/11/05 08:15:25;;;;;;;;;3.33;2.33;;;;;9.95;70.35;102142.59;4953046;28;73412;-84
2021/11/05 08:17:51;;;;;;;;;4.67;3.00;;;;;10.05;70.66;102147.69;4945618;28;50907;-84
2021/11/05 08:20:16;;;;;;;;;6.33;4.67;;;;;10.06;70.54;102146.91;4965552;28;47373;-84
2021/11/05 08:22:43;;;;;;;;;5.00;3.00;;;;;10.19;70.10;102159.97;4966019;28;45572;-84
2021/11/05 08:25:08;;;;;;;;;4.00;4.00;;;;;10.27;70.44;102167.59;4965810;28;46217;-83
2021/11/05 08:27:35;;;;;;;;;4.00;3.00;;;;;10.39;70.17;102169.22;4973811;28;45397;-84
2021/11/05 08:30:04;;;;;;;;;8.33;6.00;;;;;10.45;69.97;102171.38;4971437;28;45562;-84
2021/11/05 08:32:30;;;;;;;;;6.67;6.00;;;;;10.45;70.08;102164.41;4965736;28;45543;-84
2021/11/05 08:34:55;;;;;;;;;4.00;3.00;;;;;10.52;69.30;102163.13;4974303;28;45717;-84
2021/11/05 08:37:21;;;;;;;;;7.00;6.00;;;;;10.63;69.88;102173.47;4950269;28;45385;-84
2021/11/05 08:39:46;;;;;;;;;5.00;5.00;;;;;10.66;69.72;102174.59;4963025;28;61691;-84
2021/11/05 08:42:11;;;;;;;;;7.00;6.00;;;;;10.79;69.42;102191.19;4960377;28;64860;-84
2021/11/05 08:44:37;;;;;;;;;5.67;5.67;;;;;10.77;69.20;102183.19;4973288;28;45516;-84
2021/11/05 08:47:02;;;;;;;;;6.00;3.33;;;;;10.80;68.44;102193.00;4956007;28;47319;-84
2021/11/05 08:49:28;;;;;;;;;3.67;2.67;;;;;10.88;68.58;102196.13;4960612;28;59068;-84
2021/11/05 08:51:54;;;;;;;;;7.00;5.33;;;;;10.93;68.38;102205.25;4973076;28;45497;-86
2021/11/05 08:54:19;;;;;;;;;3.00;3.00;;;;;10.95;68.17;102188.78;4969416;28;46382;-84
2021/11/05 08:56:45;;;;;;;;;3.33;3.00;;;;;10.98;67.73;102182.81;4973589;28;45518;-83
2021/11/05 08:59:11;;;;;;;;;5.00;3.00;;;;;11.02;68.23;102195.38;4922316;28;45622;-84
2021/11/05 09:01:36;;;;;;;;;9.33;4.00;;;;;11.08;67.94;102199.22;4972722;28;46042;-85
2021/11/05 09:04:02;;;;;;;;;7.00;6.00;;;;;11.15;68.13;102202.34;4974996;28;62613;-84
2021/11/05 09:06:27;;;;;;;;;6.33;4.00;;;;;11.20;66.47;102204.38;4971285;28;45557;-84
2021/11/05 09:08:55;;;;;;;;;4.00;3.67;;;;;11.21;67.85;102219.34;4955983;28;45741;-84
2021/11/05 09:11:20;;;;;;;;;6.00;6.00;;;;;11.24;67.53;102216.91;4978675;28;45480;-84
2021/11/05 09:13:46;;;;;;;;;4.67;3.00;;;;;11.26;67.33;102216.19;4954747;28;74990;-84
2021/11/05 09:16:11;;;;;;;;;6.00;4.67;;;;;11.28;67.62;102213.69;4958580;28;45455;-84
2021/11/05 09:18:37;;;;;;;;;6.33;4.67;;;;;11.36;67.65;102220.38;4958470;28;46125;-84
2021/11/05 09:21:04;;;;;;;;;5.33;2.67;;;;;11.49;66.77;102223.78;4939712;28;45486;-84
2021/11/05 09:23:30;;;;;;;;;4.00;4.00;;;;;11.56;67.06;102231.28;4970861;28;46391;-85
2021/11/05 09:25:55;;;;;;;;;4.00;4.00;;;;;11.61;66.87;102235.13;4971450;28;45369;-85
2021/11/05 09:28:21;;;;;;;;;3.00;3.00;;;;;11.63;66.80;102219.41;4945233;28;45691;-85
2021/11/05 09:30:46;;;;;;;;;5.33;3.00;;;;;11.82;66.15;102242.56;4972036;28;45488;-85
2021/11/05 09:33:11;;;;;;;;;6.67;2.67;;;;;11.83;66.24;102240.81;4965203;28;74851;-85
2021/11/05 09:35:38;;;;;;;;;6.00;3.67;;;;;11.86;66.09;102246.28;4959584;28;65202;-86
2021/11/05 09:38:03;;;;;;;;;2.67;2.67;;;;;11.87;65.61;102252.47;4955859;28;45859;-86
2021/11/05 09:40:28;;;;;;;;;4.00;4.00;;;;;11.82;66.58;102239.94;4971424;28;54771;-86
2021/11/05 09:42:54;;;;;;;;;3.00;3.00;;;;;11.91;65.29;102250.13;4953923;28;47154;-85
2021/11/05 09:45:20;;;;;;;;;3.33;3.33;;;;;11.94;66.00;102247.72;4971627;28;45628;-86
2021/11/05 09:47:45;;;;;;;;;6.33;4.00;;;;;12.03;66.08;102255.28;4967071;28;45586;-85
2021/11/05 09:50:12;;;;;;;;;4.00;3.00;;;;;12.14;65.71;102256.00;4972879;28;61183;-86
2021/11/05 09:52:38;;;;;;;;;3.00;3.00;;;;;12.22;65.35;102256.47;4966949;28;45710;-85
2021/11/05 09:55:04;;;;;;;;;6.00;3.00;;;;;12.34;65.44;102264.25;4949986;28;45287;-85
2021/11/05 09:57:29;;;;;;;;;2.67;2.67;;;;;12.46;65.29;102269.38;4970960;28;45735;-85
2021/11/05 09:59:56;;;;;;;;;2.67;2.67;;;;;12.64;64.76;102268.69;4935272;28;54678;-85
2021/11/05 10:02:22;;;;;;;;;4.33;3.00;;;;;12.78;64.21;102269.50;4926878;28;46388;-85
2021/11/05 10:04:48;;;;;;;;;5.67;2.33;;;;;12.85;64.57;102270.81;4954187;28;45552;-85
2021/11/05 10:07:13;;;;;;;;;3.00;3.00;;;;;13.00;63.34;102284.00;4957535;28;45434;-85
2021/11/05 10:09:45;;;;;;;;;2.00;2.00;;;;;13.13;63.13;102285.66;4953374;28;46015;-85
2021/11/05 10:12:15;;;;;;;;;4.00;3.00;;;;;13.20;62.70;102281.63;4967862;28;45497;-85
2021/11/05 10:14:41;;;;;;;;;4.00;3.67;;;;;13.28;63.05;102282.09;4970704;28;45529;-85
2021/11/05 10:17:09;;;;;;;;;4.33;3.00;;;;;13.40;62.02;102293.34;4974001;28;45322;-86
2021/11/05 10:19:49;;;;;;;;;3.00;2.00;;;;;13.47;61.20;102299.00;4968669;28;45927;-85
2021/11/05 10:22:49;;;;;;;;;3.33;3.33;;;;;13.50;62.31;102304.47;4948667;28;46559;-85
2021/11/05 10:25:19;;;;;;;;;3.67;3.67;;;;;13.48;61.36;102288.53;4966845;28;45361;-85
2021/11/05 10:27:45;;;;;;;;;2.67;2.33;;;;;13.52;61.53;102297.53;4970754;28;45430;-85
2021/11/05 10:30:11;;;;;;;;;7.00;3.00;;;;;13.48;60.78;102300.81;4963579;28;45814;-85
2021/11/05 10:32:40;;;;;;;;;3.00;2.33;;;;;13.50;59.34;102309.75;4961086;28;47165;-85
2021/11/05 10:35:13;;;;;;;;;3.33;3.00;;;;;13.41;60.79;102308.38;4972887;28;45429;-85
2021/11/05 10:37:41;;;;;;;;;4.67;1.33;;;;;13.30;60.87;102306.81;4970680;28;45376;-85
2021/11/05 10:40:08;;;;;;;;;3.00;3.00;;;;;13.21;60.64;102308.91;4956095;28;45529;-85
2021/11/05 10:42:35;;;;;;;;;4.00;4.00;;;;;13.14;61.19;102318.19;4951604;28;46489;-86
2021/11/05 10:45:18;;;;;;;;;1.33;1.33;;;;;13.07;61.47;102316.91;4969662;28;45481;-85
2021/11/05 10:47:52;;;;;;;;;4.00;2.00;;;;;13.01;60.77;102314.81;4969397;28;45541;-85
2021/11/05 10:50:19;;;;;;;;;5.00;3.00;;;;;12.91;61.40;102302.78;4971541;28;45482;-84
2021/11/05 10:52:56;;;;;;;;;3.00;3.00;;;;;12.86;62.09;102317.41;4954236;28;45593;-85
2021/11/05 10:55:22;;;;;;;;;1.00;1.00;;;;;12.72;61.76;102306.94;4947249;28;49983;-85
2021/11/05 10:57:48;;;;;;;;;1.67;1.67;;;;;12.64;61.35;102305.56;4962207;28;68102;-85
2021/11/05 11:00:30;;;;;;;;;2.00;2.00;;;;;12.50;61.51;102307.31;4950362;28;45566;-85
2021/11/05 11:02:56;;;;;;;;;5.67;3.00;;;;;12.42;61.25;102309.47;4974854;28;46304;-85
2021/11/05 11:05:31;;;;;;;;;2.67;1.00;;;;;12.28;62.08;102309.53;4972584;28;45452;-84
2021/11/05 11:07:57;;;;;;;;;6.00;2.33;;;;;12.22;62.80;102301.22;4953733;28;45349;-84
2021/11/05 11:10:33;;;;;;;;;3.33;2.00;;;;;12.20;62.06;102304.56;4939221;28;45366;-85
2021/11/05 11:12:59;;;;;;;;;5.67;3.00;;;;;12.16;61.79;102299.09;4971106;28;45495;-85
2021/11/05 11:15:35;;;;;;;;;2.33;2.00;;;;;12.12;62.17;102299.69;4958663;28;45486;-84
2021/11/05 11:18:00;;;;;;;;;1.67;1.00;;;;;12.09;62.84;102304.75;4962883;28;45523;-84
2021/11/05 11:20:39;;;;;;;;;2.33;1.00;;;;;12.09;63.05;102306.47;4972836;28;45548;-84
2021/11/05 11:23:05;;;;;;;;;2.00;2.00;;;;;12.09;63.33;102304.75;4958862;28;45968;-86
2021/11/05 11:25:31;;;;;;;;;1.00;1.00;;;;;12.20;62.75;102297.59;4953044;28;45656;-86
2021/11/05 11:27:56;;;;;;;;;2.33;2.00;;;;;12.42;62.57;102300.69;4956604;28;45501;-85
2021/11/05 11:30:22;;;;;;;;;1.67;0.00;;;;;12.57;62.80;102287.56;4969677;28;65464;-85
2021/11/05 11:32:49;;;;;;;;;2.00;2.00;;;;;12.87;62.07;102294.59;4950116;28;45540;-86
2021/11/05 11:35:14;;;;;;;;;2.00;2.00;;;;;13.02;61.14;102286.72;4968041;28;45581;-86
2021/11/05 11:37:40;;;;;;;;;2.67;2.00;;;;;13.13;58.71;102293.56;4950824;28;45839;-85
2021/11/05 11:40:06;;;;;;;;;3.33;3.00;;;;;13.14;60.16;102295.34;4954681;28;45539;-86
2021/11/05 11:42:32;;;;;;;;;1.33;1.00;;;;;13.08;60.74;102295.00;4970678;28;46432;-86
2021/11/05 11:44:58;;;;;;;;;2.00;2.00;;;;;13.15;60.37;102299.81;4952265;28;45515;-85
2021/11/05 11:47:23;;;;;;;;;0.67;0.67;;;;;13.29;59.34;102297.09;4952727;28;46834;-85
2021/11/05 11:49:49;;;;;;;;;1.00;1.00;;;;;13.48;59.95;102303.44;4969725;28;45378;-86
2021/11/05 11:52:14;;;;;;;;;1.67;0.00;;;;;13.60;60.30;102301.59;4953587;28;45756;-85
2021/11/05 11:54:40;;;;;;;;;1.33;1.00;;;;;13.70;59.03;102305.66;4955186;28;45991;-85
2021/11/05 11:57:20;;;;;;;;;3.00;1.33;;;;;13.89;58.58;102300.53;4974813;28;45259;-87
2021/11/05 12:00:00;;;;;;;;;2.00;2.00;;;;;14.03;59.84;102301.28;4950345;28;45505;-86
2021/11/05 12:02:36;;;;;;;;;3.33;1.67;;;;;14.22;59.91;102297.03;4949284;28;45520;-88
2021/11/05 12:05:21;;;;;;;;;2.00;1.00;;;;;14.34;59.47;102295.06;4959571;28;45505;-86
2021/11/05 12:08:15;;;;;;;;;2.00;2.00;;;;;14.37;56.15;102303.16;4975982;28;45497;-86
2021/11/05 12:10:42;;;;;;;;;2.00;1.00;;;;;14.22;55.61;102291.75;4972467;28;45789;-86
2021/11/05 12:13:32;;;;;;;;;1.00;1.00;;;;;14.21;56.46;102300.50;4966487;28;45446;-89
2021/11/05 12:16:10;;;;;;;;;1.00;1.00;;;;;14.10;56.74;102294.59;4966872;28;45551;-87
2021/11/05 12:19:03;;;;;;;;;1.00;1.00;;;;;13.94;57.56;102307.84;4951580;28;45503;-87
2021/11/05 12:21:34;;;;;;;;;2.67;2.67;;;;;13.75;57.71;102305.91;4965232;28;45618;-88
2021/11/05 12:24:16;;;;;;;;;4.00;1.33;;;;;13.68;58.98;102301.09;4952519;28;45551;-87
2021/11/05 12:26:44;;;;;;;;;3.00;2.00;;;;;13.72;58.40;102297.81;4966731;28;45298;-88
2021/11/05 12:29:10;;;;;;;;;2.33;2.33;;;;;13.69;59.08;102309.09;4966150;28;45944;-89
2021/11/05 12:31:37;;;;;;;;;1.33;1.00;;;;;13.60;57.57;102306.84;4966530;28;45541;-88
2021/11/05 12:34:25;;;;;;;;;0.67;0.67;;;;;13.53;57.66;102325.72;4957692;28;46406;-89
2021/11/05 12:36:55;;;;;;;;;2.33;2.00;;;;;13.35;57.40;102317.66;4941748;28;45354;-89
2021/11/05 12:39:31;;;;;;;;;0.00;0.00;;;;;13.24;58.37;102324.94;4939156;28;45471;-89
2021/11/05 12:42:04;;;;;;;;;2.33;0.00;;;;;13.12;58.67;102317.16;4935747;28;45646;-89
2021/11/05 12:45:04;;;;;;;;;1.33;1.33;;;;;13.00;58.37;102328.81;4920778;28;46077;-89
2021/11/05 12:47:49;;;;;;;;;2.00;1.00;;;;;12.90;58.46;102329.06;4963378;28;45413;-88
2021/11/05 12:50:32;;;;;;;;;1.00;1.00;;;;;12.82;59.84;102318.03;4971815;28;45528;-87
2021/11/05 12:52:59;;;;;;;;;1.00;1.00;;;;;12.83;59.73;102326.03;4953934;28;45571;-87
2021/11/05 12:55:26;;;;;;;;;1.33;1.33;;;;;12.88;58.95;102328.97;4966130;28;46407;-87
2021/11/05 12:57:54;;;;;;;;;4.00;2.67;;;;;12.93;59.54;102311.72;4969571;28;45497;-87
2021/11/05 13:00:21;;;;;;;;;3.00;2.00;;;;;13.02;59.66;102314.00;4953106;28;45533;-85
2021/11/05 13:02:53;;;;;;;;;1.67;1.00;;;;;13.07;59.81;102319.53;4951385;28;45503;-86
2021/11/05 13:05:18;;;;;;;;;3.67;2.00;;;;;13.11;59.98;102316.28;4951218;28;46256;-86
2021/11/05 13:07:57;;;;;;;;;1.67;1.67;;;;;13.25;59.72;102314.47;4952058;28;45478;-86
2021/11/05 13:10:33;;;;;;;;;1.67;1.33;;;;;13.37;57.98;102316.03;4973083;28;45626;-85
2021/11/05 13:12:59;;;;;;;;;1.67;1.67;;;;;13.42;58.83;102327.75;4979132;28;45698;-85
2021/11/05 13:15:25;;;;;;;;;2.00;1.00;;;;;13.48;57.59;102311.34;4958038;28;45530;-86
2021/11/05 13:17:51;;;;;;;;;2.00;2.00;;;;;13.72;58.52;102321.56;4939138;28;45623;-86
2021/11/05 13:20:22;;;;;;;;;1.00;1.00;;;;;13.96;58.22;102315.88;4957052;28;45548;-86
2021/11/05 13:22:48;;;;;;;;;8.00;2.00;;;;;14.16;55.98;102316.09;4956957;28;45450;-86
2021/11/05 13:25:21;;;;;;;;;3.67;3.00;;;;;14.24;57.27;102319.16;4955830;28;46237;-86
2021/11/05 13:28:16;;;;;;;;;2.00;2.00;;;;;14.35;56.94;102330.31;4954925;28;45529;-86